sensor_id;sensor_type;location;lat;lon;timestamp;P1;durP1;ratioP1;P2;durP2;ratioP2
70487;SDS011;57976;48.174;16.370;2024-03-22T00:00:13;10.10;;;6.00;;
70487;SDS011;57976;48.174;16.370;2024-03-22T00:02:18;9.70;;;5.70;;
70487;SDS011;57976;48.174;16.370;2024-03-22T00:04:25;10.10;;;6.00;;
70487;SDS011;57976;48.174;16.370;2024-03-22T00:06:32;9.60;;;5.80;;
70487;SDS011;57976;48.174;16.370;2024-03-22T00:08:37;10.70;;;5.90;;
70487;SDS011;57976;48.174;16.370;2024-03-22T00:10:41;10.70;;;5.90;;
70487;SDS011;57976;48.174;16.370;2024-03-22T00:12:46;10.50;;;5.60;;
70487;SDS011;57976;48.174;16.370;2024-03-22T00:14:51;10.10;;;5.80;;
70487;SDS011;57976;48.174;16.370;2024-03-22T00:16:56;11.50;;;6.00;;
70487;SDS011;57976;48.174;16.370;2024-03-22T00:19:00;9.80;;;6.40;;
70487;SDS011;57976;48.174;16.370;2024-03-22T00:21:05;11.30;;;6.40;;
70487;SDS011;57976;48.174;16.370;2024-03-22T00:23:09;10.90;;;6.50;;
70487;SDS011;57976;48.174;16.370;2024-03-22T00:25:14;10.30;;;5.80;;
70487;SDS011;57976;48.174;16.370;2024-03-22T00:27:18;11.50;;;6.20;;
70487;SDS011;57976;48.174;16.370;2024-03-22T00:29:22;11.00;;;6.50;;
70487;SDS011;57976;48.174;16.370;2024-03-22T00:31:27;10.30;;;6.20;;
70487;SDS011;57976;48.174;16.370;2024-03-22T00:33:31;11.60;;;6.30;;
70487;SDS011;57976;48.174;16.370;2024-03-22T00:35:35;10.90;;;6.70;;
70487;SDS011;57976;48.174;16.370;2024-03-22T00:37:40;12.70;;;6.60;;
70487;SDS011;57976;48.174;16.370;2024-03-22T00:39:44;11.30;;;6.60;;
70487;SDS011;57976;48.174;16.370;2024-03-22T00:41:48;12.10;;;6.50;;
70487;SDS011;57976;48.174;16.370;2024-03-22T00:43:53;11.80;;;7.00;;
70487;SDS011;57976;48.174;16.370;2024-03-22T00:45:58;12.70;;;6.60;;
70487;SDS011;57976;48.174;16.370;2024-03-22T00:48:02;11.90;;;6.80;;
70487;SDS011;57976;48.174;16.370;2024-03-22T00:50:07;13.70;;;7.30;;
70487;SDS011;57976;48.174;16.370;2024-03-22T00:52:12;13.10;;;7.30;;
70487;SDS011;57976;48.174;16.370;2024-03-22T00:54:16;12.40;;;7.10;;
70487;SDS011;57976;48.174;16.370;2024-03-22T00:56:20;12.40;;;7.60;;
70487;SDS011;57976;48.174;16.370;2024-03-22T00:58:25;12.30;;;7.70;;
70487;SDS011;57976;48.174;16.370;2024-03-22T01:00:30;13.00;;;7.70;;
70487;SDS011;57976;48.174;16.370;2024-03-22T01:02:34;13.50;;;7.60;;
70487;SDS011;57976;48.174;16.370;2024-03-22T01:04:38;14.00;;;8.20;;
70487;SDS011;57976;48.174;16.370;2024-03-22T01:06:43;15.00;;;8.00;;
70487;SDS011;57976;48.174;16.370;2024-03-22T01:08:47;13.40;;;8.20;;
70487;SDS011;57976;48.174;16.370;2024-03-22T01:10:52;13.40;;;8.10;;
70487;SDS011;57976;48.174;16.370;2024-03-22T01:12:56;14.20;;;8.50;;
70487;SDS011;57976;48.174;16.370;2024-03-22T01:15:00;14.30;;;8.30;;
70487;SDS011;57976;48.174;16.370;2024-03-22T01:17:06;15.80;;;8.60;;
70487;SDS011;57976;48.174;16.370;2024-03-22T01:19:10;14.20;;;8.60;;
70487;SDS011;57976;48.174;16.370;2024-03-22T01:21:15;13.20;;;8.20;;
70487;SDS011;57976;48.174;16.370;2024-03-22T01:23:19;16.30;;;8.90;;
70487;SDS011;57976;48.174;16.370;2024-03-22T01:25:23;13.90;;;8.30;;
70487;SDS011;57976;48.174;16.370;2024-03-22T01:27:28;14.50;;;8.60;;
70487;SDS011;57976;48.174;16.370;2024-03-22T01:29:32;14.80;;;8.50;;
70487;SDS011;57976;48.174;16.370;2024-03-22T01:31:36;14.00;;;8.40;;
70487;SDS011;57976;48.174;16.370;2024-03-22T01:33:41;14.40;;;8.90;;
70487;SDS011;57976;48.174;16.370;2024-03-22T01:35:45;13.00;;;8.00;;
70487;SDS011;57976;48.174;16.370;2024-03-22T01:37:49;14.40;;;8.40;;
70487;SDS011;57976;48.174;16.370;2024-03-22T01:39:53;14.50;;;8.40;;
70487;SDS011;57976;48.174;16.370;2024-03-22T01:41:58;14.90;;;8.40;;
70487;SDS011;57976;48.174;16.370;2024-03-22T01:44:02;14.20;;;8.50;;
70487;SDS011;57976;48.174;16.370;2024-03-22T01:46:06;14.70;;;8.80;;
70487;SDS011;57976;48.174;16.370;2024-03-22T01:48:11;14.70;;;8.60;;
70487;SDS011;57976;48.174;16.370;2024-03-22T01:50:16;14.20;;;8.20;;
70487;SDS011;57976;48.174;16.370;2024-03-22T01:52:21;15.10;;;9.40;;
70487;SDS011;57976;48.174;16.370;2024-03-22T01:54:25;14.60;;;9.00;;
70487;SDS011;57976;48.174;16.370;2024-03-22T01:56:29;14.20;;;8.30;;
70487;SDS011;57976;48.174;16.370;2024-03-22T01:58:34;16.50;;;9.10;;
70487;SDS011;57976;48.174;16.370;2024-03-22T02:00:42;13.40;;;8.00;;
70487;SDS011;57976;48.174;16.370;2024-03-22T02:02:46;14.50;;;8.80;;
70487;SDS011;57976;48.174;16.370;2024-03-22T02:04:54;15.30;;;9.10;;
70487;SDS011;57976;48.174;16.370;2024-03-22T02:06:58;17.00;;;10.30;;
70487;SDS011;57976;48.174;16.370;2024-03-22T02:09:03;15.50;;;9.00;;
70487;SDS011;57976;48.174;16.370;2024-03-22T02:11:07;15.50;;;9.30;;
70487;SDS011;57976;48.174;16.370;2024-03-22T02:13:11;15.30;;;8.90;;
70487;SDS011;57976;48.174;16.370;2024-03-22T02:15:16;16.50;;;9.30;;
70487;SDS011;57976;48.174;16.370;2024-03-22T02:17:20;14.70;;;8.80;;
70487;SDS011;57976;48.174;16.370;2024-03-22T02:19:24;15.30;;;9.30;;
70487;SDS011;57976;48.174;16.370;2024-03-22T02:21:29;15.60;;;8.80;;
70487;SDS011;57976;48.174;16.370;2024-03-22T02:23:33;16.00;;;9.10;;
70487;SDS011;57976;48.174;16.370;2024-03-22T02:25:38;16.50;;;9.20;;
70487;SDS011;57976;48.174;16.370;2024-03-22T02:27:43;15.60;;;9.60;;
70487;SDS011;57976;48.174;16.370;2024-03-22T02:29:47;15.00;;;9.10;;
70487;SDS011;57976;48.174;16.370;2024-03-22T02:31:51;15.90;;;9.40;;
70487;SDS011;57976;48.174;16.370;2024-03-22T02:33:56;16.40;;;9.80;;
70487;SDS011;57976;48.174;16.370;2024-03-22T02:36:00;15.00;;;8.50;;
70487;SDS011;57976;48.174;16.370;2024-03-22T02:38:04;15.20;;;9.00;;
70487;SDS011;57976;48.174;16.370;2024-03-22T02:40:12;15.30;;;9.00;;
70487;SDS011;57976;48.174;16.370;2024-03-22T02:42:20;15.10;;;9.00;;
70487;SDS011;57976;48.174;16.370;2024-03-22T02:44:24;15.40;;;8.80;;
70487;SDS011;57976;48.174;16.370;2024-03-22T02:46:28;15.90;;;10.00;;
70487;SDS011;57976;48.174;16.370;2024-03-22T02:48:32;16.20;;;9.00;;
70487;SDS011;57976;48.174;16.370;2024-03-22T02:50:37;15.00;;;8.90;;
70487;SDS011;57976;48.174;16.370;2024-03-22T02:52:41;16.00;;;9.70;;
70487;SDS011;57976;48.174;16.370;2024-03-22T02:54:46;16.30;;;9.40;;
70487;SDS011;57976;48.174;16.370;2024-03-22T02:56:51;16.10;;;9.40;;
70487;SDS011;57976;48.174;16.370;2024-03-22T02:58:55;16.50;;;10.00;;
70487;SDS011;57976;48.174;16.370;2024-03-22T03:00:59;14.70;;;8.80;;
70487;SDS011;57976;48.174;16.370;2024-03-22T03:03:04;15.50;;;9.00;;
70487;SDS011;57976;48.174;16.370;2024-03-22T03:05:11;17.10;;;9.70;;
70487;SDS011;57976;48.174;16.370;2024-03-22T03:07:16;15.90;;;9.00;;
70487;SDS011;57976;48.174;16.370;2024-03-22T03:09:21;16.20;;;9.20;;
70487;SDS011;57976;48.174;16.370;2024-03-22T03:11:25;15.50;;;9.10;;
70487;SDS011;57976;48.174;16.370;2024-03-22T03:13:30;15.10;;;8.90;;
70487;SDS011;57976;48.174;16.370;2024-03-22T03:15:35;16.90;;;9.50;;
70487;SDS011;57976;48.174;16.370;2024-03-22T03:17:39;17.70;;;9.60;;
70487;SDS011;57976;48.174;16.370;2024-03-22T03:19:44;18.50;;;9.80;;
70487;SDS011;57976;48.174;16.370;2024-03-22T03:21:48;15.90;;;9.40;;
70487;SDS011;57976;48.174;16.370;2024-03-22T03:23:55;16.70;;;9.50;;
70487;SDS011;57976;48.174;16.370;2024-03-22T03:26:00;16.90;;;10.20;;
70487;SDS011;57976;48.174;16.370;2024-03-22T03:28:04;17.30;;;9.70;;
70487;SDS011;57976;48.174;16.370;2024-03-22T03:30:09;15.50;;;8.80;;
70487;SDS011;57976;48.174;16.370;2024-03-22T03:32:17;16.30;;;8.90;;
70487;SDS011;57976;48.174;16.370;2024-03-22T03:34:21;15.80;;;9.30;;
70487;SDS011;57976;48.174;16.370;2024-03-22T03:36:25;16.30;;;9.00;;
70487;SDS011;57976;48.174;16.370;2024-03-22T03:38:30;16.50;;;9.50;;
70487;SDS011;57976;48.174;16.370;2024-03-22T03:40:34;16.70;;;9.00;;
70487;SDS011;57976;48.174;16.370;2024-03-22T03:42:38;15.60;;;9.20;;
70487;SDS011;57976;48.174;16.370;2024-03-22T03:44:46;15.80;;;9.00;;
70487;SDS011;57976;48.174;16.370;2024-03-22T03:46:50;17.80;;;9.30;;
70487;SDS011;57976;48.174;16.370;2024-03-22T03:48:55;16.70;;;8.70;;
70487;SDS011;57976;48.174;16.370;2024-03-22T03:51:00;15.70;;;9.20;;
70487;SDS011;57976;48.174;16.370;2024-03-22T03:53:04;15.40;;;8.50;;
70487;SDS011;57976;48.174;16.370;2024-03-22T03:55:09;16.10;;;8.80;;
70487;SDS011;57976;48.174;16.370;2024-03-22T03:57:13;16.30;;;8.90;;
70487;SDS011;57976;48.174;16.370;2024-03-22T03:59:17;14.90;;;8.80;;
70487;SDS011;57976;48.174;16.370;2024-03-22T04:01:22;14.60;;;8.20;;
70487;SDS011;57976;48.174;16.370;2024-03-22T04:03:26;16.00;;;8.80;;
70487;SDS011;57976;48.174;16.370;2024-03-22T04:05:30;15.60;;;9.10;;
70487;SDS011;57976;48.174;16.370;2024-03-22T04:07:34;15.80;;;9.00;;
70487;SDS011;57976;48.174;16.370;2024-03-22T04:09:39;16.60;;;9.10;;
70487;SDS011;57976;48.174;16.370;2024-03-22T04:11:47;14.50;;;8.60;;
70487;SDS011;57976;48.174;16.370;2024-03-22T04:13:51;14.90;;;8.70;;
70487;SDS011;57976;48.174;16.370;2024-03-22T04:15:58;16.20;;;8.80;;
70487;SDS011;57976;48.174;16.370;2024-03-22T04:18:04;16.20;;;9.00;;
70487;SDS011;57976;48.174;16.370;2024-03-22T04:20:09;16.10;;;9.00;;
70487;SDS011;57976;48.174;16.370;2024-03-22T04:22:14;15.40;;;8.40;;
70487;SDS011;57976;48.174;16.370;2024-03-22T04:24:18;14.40;;;8.50;;
70487;SDS011;57976;48.174;16.370;2024-03-22T04:26:23;14.80;;;8.80;;
70487;SDS011;57976;48.174;16.370;2024-03-22T04:28:27;15.50;;;9.10;;
70487;SDS011;57976;48.174;16.370;2024-03-22T04:30:32;16.00;;;9.30;;
70487;SDS011;57976;48.174;16.370;2024-03-22T04:32:36;15.60;;;9.00;;
70487;SDS011;57976;48.174;16.370;2024-03-22T04:34:42;16.70;;;9.00;;
70487;SDS011;57976;48.174;16.370;2024-03-22T04:36:47;15.90;;;8.90;;
70487;SDS011;57976;48.174;16.370;2024-03-22T04:38:51;15.00;;;8.60;;
70487;SDS011;57976;48.174;16.370;2024-03-22T04:40:56;17.00;;;8.80;;
70487;SDS011;57976;48.174;16.370;2024-03-22T04:43:00;15.00;;;8.40;;
70487;SDS011;57976;48.174;16.370;2024-03-22T04:45:05;15.00;;;8.70;;
70487;SDS011;57976;48.174;16.370;2024-03-22T04:47:10;15.00;;;8.70;;
70487;SDS011;57976;48.174;16.370;2024-03-22T04:49:14;15.40;;;8.80;;
70487;SDS011;57976;48.174;16.370;2024-03-22T04:51:21;14.40;;;8.30;;
70487;SDS011;57976;48.174;16.370;2024-03-22T04:53:28;15.30;;;8.70;;
70487;SDS011;57976;48.174;16.370;2024-03-22T04:55:33;15.20;;;8.90;;
70487;SDS011;57976;48.174;16.370;2024-03-22T04:57:38;14.90;;;8.80;;
70487;SDS011;57976;48.174;16.370;2024-03-22T04:59:42;16.20;;;9.20;;
70487;SDS011;57976;48.174;16.370;2024-03-22T05:01:47;16.30;;;8.70;;
70487;SDS011;57976;48.174;16.370;2024-03-22T05:03:52;15.50;;;8.80;;
70487;SDS011;57976;48.174;16.370;2024-03-22T05:05:56;14.80;;;8.20;;
70487;SDS011;57976;48.174;16.370;2024-03-22T05:08:01;17.30;;;9.70;;
70487;SDS011;57976;48.174;16.370;2024-03-22T05:10:06;16.10;;;9.20;;
70487;SDS011;57976;48.174;16.370;2024-03-22T05:12:14;13.90;;;8.30;;
70487;SDS011;57976;48.174;16.370;2024-03-22T05:14:19;15.60;;;8.50;;
70487;SDS011;57976;48.174;16.370;2024-03-22T05:16:23;15.50;;;8.60;;
70487;SDS011;57976;48.174;16.370;2024-03-22T05:18:27;18.40;;;8.80;;
70487;SDS011;57976;48.174;16.370;2024-03-22T05:20:32;15.10;;;8.70;;
70487;SDS011;57976;48.174;16.370;2024-03-22T05:22:36;16.90;;;8.70;;
70487;SDS011;57976;48.174;16.370;2024-03-22T05:24:41;13.90;;;8.00;;
70487;SDS011;57976;48.174;16.370;2024-03-22T05:26:45;15.70;;;9.10;;
70487;SDS011;57976;48.174;16.370;2024-03-22T05:28:49;15.60;;;9.10;;
70487;SDS011;57976;48.174;16.370;2024-03-22T05:30:54;15.00;;;8.50;;
70487;SDS011;57976;48.174;16.370;2024-03-22T05:32:58;14.00;;;8.60;;
70487;SDS011;57976;48.174;16.370;2024-03-22T05:35:02;14.50;;;8.80;;
70487;SDS011;57976;48.174;16.370;2024-03-22T05:37:08;15.80;;;8.10;;
70487;SDS011;57976;48.174;16.370;2024-03-22T05:39:12;15.00;;;8.10;;
70487;SDS011;57976;48.174;16.370;2024-03-22T05:41:16;16.20;;;8.00;;
70487;SDS011;57976;48.174;16.370;2024-03-22T05:43:21;15.90;;;8.30;;
70487;SDS011;57976;48.174;16.370;2024-03-22T05:45:25;16.90;;;8.20;;
70487;SDS011;57976;48.174;16.370;2024-03-22T05:47:29;13.40;;;8.10;;
70487;SDS011;57976;48.174;16.370;2024-03-22T05:49:40;14.40;;;7.80;;
70487;SDS011;57976;48.174;16.370;2024-03-22T05:51:44;15.60;;;8.80;;
70487;SDS011;57976;48.174;16.370;2024-03-22T05:53:49;14.50;;;8.40;;
70487;SDS011;57976;48.174;16.370;2024-03-22T05:55:53;15.70;;;8.70;;
70487;SDS011;57976;48.174;16.370;2024-03-22T05:57:57;19.20;;;9.40;;
70487;SDS011;57976;48.174;16.370;2024-03-22T06:00:02;15.50;;;8.60;;
70487;SDS011;57976;48.174;16.370;2024-03-22T06:02:08;15.60;;;8.70;;
70487;SDS011;57976;48.174;16.370;2024-03-22T06:04:12;16.70;;;9.50;;
70487;SDS011;57976;48.174;16.370;2024-03-22T06:06:16;17.10;;;9.00;;
70487;SDS011;57976;48.174;16.370;2024-03-22T06:08:21;16.20;;;9.20;;
70487;SDS011;57976;48.174;16.370;2024-03-22T06:10:25;17.20;;;10.00;;
70487;SDS011;57976;48.174;16.370;2024-03-22T06:12:29;18.10;;;9.80;;
70487;SDS011;57976;48.174;16.370;2024-03-22T06:14:34;16.90;;;9.10;;
70487;SDS011;57976;48.174;16.370;2024-03-22T06:16:38;16.80;;;9.50;;
70487;SDS011;57976;48.174;16.370;2024-03-22T06:18:42;18.00;;;9.40;;
70487;SDS011;57976;48.174;16.370;2024-03-22T06:20:47;16.80;;;9.20;;
70487;SDS011;57976;48.174;16.370;2024-03-22T06:22:51;19.30;;;10.40;;
70487;SDS011;57976;48.174;16.370;2024-03-22T06:24:55;18.50;;;10.80;;
70487;SDS011;57976;48.174;16.370;2024-03-22T06:26:59;17.20;;;9.80;;
70487;SDS011;57976;48.174;16.370;2024-03-22T06:29:04;19.90;;;10.80;;
70487;SDS011;57976;48.174;16.370;2024-03-22T06:31:08;19.70;;;10.30;;
70487;SDS011;57976;48.174;16.370;2024-03-22T06:33:13;19.20;;;10.70;;
70487;SDS011;57976;48.174;16.370;2024-03-22T06:35:17;17.70;;;9.90;;
70487;SDS011;57976;48.174;16.370;2024-03-22T06:37:21;18.30;;;10.30;;
70487;SDS011;57976;48.174;16.370;2024-03-22T06:39:26;18.70;;;9.80;;
70487;SDS011;57976;48.174;16.370;2024-03-22T06:41:30;20.30;;;11.00;;
70487;SDS011;57976;48.174;16.370;2024-03-22T06:43:37;18.60;;;10.40;;
70487;SDS011;57976;48.174;16.370;2024-03-22T06:45:42;19.00;;;10.50;;
70487;SDS011;57976;48.174;16.370;2024-03-22T06:47:46;21.00;;;10.50;;
70487;SDS011;57976;48.174;16.370;2024-03-22T06:49:50;19.00;;;10.50;;
70487;SDS011;57976;48.174;16.370;2024-03-22T06:51:55;19.40;;;10.70;;
70487;SDS011;57976;48.174;16.370;2024-03-22T06:53:59;19.50;;;10.70;;
70487;SDS011;57976;48.174;16.370;2024-03-22T06:56:03;20.40;;;10.70;;
70487;SDS011;57976;48.174;16.370;2024-03-22T06:58:08;19.40;;;10.20;;
70487;SDS011;57976;48.174;16.370;2024-03-22T07:00:16;19.20;;;10.80;;
70487;SDS011;57976;48.174;16.370;2024-03-22T07:02:22;17.90;;;10.40;;
70487;SDS011;57976;48.174;16.370;2024-03-22T07:04:27;20.60;;;11.50;;
70487;SDS011;57976;48.174;16.370;2024-03-22T07:06:31;19.90;;;11.00;;
70487;SDS011;57976;48.174;16.370;2024-03-22T07:08:35;18.00;;;9.50;;
70487;SDS011;57976;48.174;16.370;2024-03-22T07:10:40;20.70;;;11.30;;
70487;SDS011;57976;48.174;16.370;2024-03-22T07:12:44;19.80;;;11.10;;
70487;SDS011;57976;48.174;16.370;2024-03-22T07:14:48;19.90;;;11.00;;
70487;SDS011;57976;48.174;16.370;2024-03-22T07:16:53;20.50;;;11.00;;
70487;SDS011;57976;48.174;16.370;2024-03-22T07:18:57;20.20;;;11.00;;
70487;SDS011;57976;48.174;16.370;2024-03-22T07:21:01;19.40;;;10.60;;
70487;SDS011;57976;48.174;16.370;2024-03-22T07:23:06;19.00;;;10.00;;
70487;SDS011;57976;48.174;16.370;2024-03-22T07:25:11;19.60;;;11.10;;
70487;SDS011;57976;48.174;16.370;2024-03-22T07:27:15;20.30;;;11.30;;
70487;SDS011;57976;48.174;16.370;2024-03-22T07:29:20;18.70;;;10.90;;
70487;SDS011;57976;48.174;16.370;2024-03-22T07:31:25;20.30;;;11.50;;
70487;SDS011;57976;48.174;16.370;2024-03-22T07:33:30;18.90;;;10.70;;
70487;SDS011;57976;48.174;16.370;2024-03-22T07:35:35;20.30;;;11.50;;
70487;SDS011;57976;48.174;16.370;2024-03-22T07:37:40;21.60;;;11.40;;
70487;SDS011;57976;48.174;16.370;2024-03-22T07:39:44;18.80;;;10.90;;
70487;SDS011;57976;48.174;16.370;2024-03-22T07:41:49;20.80;;;10.90;;
70487;SDS011;57976;48.174;16.370;2024-03-22T07:43:53;21.00;;;11.40;;
70487;SDS011;57976;48.174;16.370;2024-03-22T07:45:57;19.60;;;10.90;;
70487;SDS011;57976;48.174;16.370;2024-03-22T07:48:02;22.20;;;11.80;;
70487;SDS011;57976;48.174;16.370;2024-03-22T07:50:07;22.30;;;11.60;;
70487;SDS011;57976;48.174;16.370;2024-03-22T07:52:12;21.90;;;11.70;;
70487;SDS011;57976;48.174;16.370;2024-03-22T07:54:17;22.60;;;11.60;;
70487;SDS011;57976;48.174;16.370;2024-03-22T07:56:21;21.00;;;11.40;;
70487;SDS011;57976;48.174;16.370;2024-03-22T07:58:26;21.20;;;11.30;;
70487;SDS011;57976;48.174;16.370;2024-03-22T08:00:31;20.40;;;11.30;;
70487;SDS011;57976;48.174;16.370;2024-03-22T08:02:35;21.10;;;11.30;;
70487;SDS011;57976;48.174;16.370;2024-03-22T08:04:40;22.00;;;12.00;;
70487;SDS011;57976;48.174;16.370;2024-03-22T08:06:44;19.00;;;11.00;;
70487;SDS011;57976;48.174;16.370;2024-03-22T08:08:49;19.30;;;11.30;;
70487;SDS011;57976;48.174;16.370;2024-03-22T08:10:53;19.80;;;10.60;;
70487;SDS011;57976;48.174;16.370;2024-03-22T08:12:58;21.60;;;11.50;;
70487;SDS011;57976;48.174;16.370;2024-03-22T08:15:02;20.70;;;11.10;;
70487;SDS011;57976;48.174;16.370;2024-03-22T08:17:08;19.60;;;11.20;;
70487;SDS011;57976;48.174;16.370;2024-03-22T08:19:12;21.00;;;11.10;;
70487;SDS011;57976;48.174;16.370;2024-03-22T08:21:17;20.70;;;11.80;;
70487;SDS011;57976;48.174;16.370;2024-03-22T08:23:22;19.80;;;10.80;;
70487;SDS011;57976;48.174;16.370;2024-03-22T08:25:27;20.50;;;10.60;;
70487;SDS011;57976;48.174;16.370;2024-03-22T08:27:31;20.70;;;11.60;;
70487;SDS011;57976;48.174;16.370;2024-03-22T08:29:56;19.50;;;10.70;;
70487;SDS011;57976;48.174;16.370;2024-03-22T08:32:01;21.10;;;11.20;;
70487;SDS011;57976;48.174;16.370;2024-03-22T08:34:05;22.20;;;11.30;;
70487;SDS011;57976;48.174;16.370;2024-03-22T08:36:09;19.80;;;11.10;;
70487;SDS011;57976;48.174;16.370;2024-03-22T08:38:14;19.60;;;11.40;;
70487;SDS011;57976;48.174;16.370;2024-03-22T08:40:21;20.30;;;10.80;;
70487;SDS011;57976;48.174;16.370;2024-03-22T08:42:26;18.80;;;11.00;;
70487;SDS011;57976;48.174;16.370;2024-03-22T08:44:31;20.50;;;10.70;;
70487;SDS011;57976;48.174;16.370;2024-03-22T08:46:35;20.00;;;11.20;;
70487;SDS011;57976;48.174;16.370;2024-03-22T08:48:40;19.90;;;10.60;;
70487;SDS011;57976;48.174;16.370;2024-03-22T08:50:45;20.50;;;10.40;;
70487;SDS011;57976;48.174;16.370;2024-03-22T08:52:50;18.60;;;10.70;;
70487;SDS011;57976;48.174;16.370;2024-03-22T08:54:55;20.70;;;10.60;;
70487;SDS011;57976;48.174;16.370;2024-03-22T08:56:59;18.70;;;9.90;;
70487;SDS011;57976;48.174;16.370;2024-03-22T08:59:04;19.50;;;10.80;;
70487;SDS011;57976;48.174;16.370;2024-03-22T09:01:09;18.90;;;10.00;;
70487;SDS011;57976;48.174;16.370;2024-03-22T09:03:13;16.70;;;9.10;;
70487;SDS011;57976;48.174;16.370;2024-03-22T09:05:17;18.10;;;9.60;;
70487;SDS011;57976;48.174;16.370;2024-03-22T09:07:22;17.90;;;9.50;;
70487;SDS011;57976;48.174;16.370;2024-03-22T09:09:26;18.90;;;9.70;;
70487;SDS011;57976;48.174;16.370;2024-03-22T09:11:31;17.30;;;9.10;;
70487;SDS011;57976;48.174;16.370;2024-03-22T09:13:39;16.70;;;9.50;;
70487;SDS011;57976;48.174;16.370;2024-03-22T09:15:43;17.70;;;9.60;;
70487;SDS011;57976;48.174;16.370;2024-03-22T09:17:47;18.40;;;9.70;;
70487;SDS011;57976;48.174;16.370;2024-03-22T09:19:52;17.90;;;9.90;;
70487;SDS011;57976;48.174;16.370;2024-03-22T09:21:56;17.50;;;9.60;;
70487;SDS011;57976;48.174;16.370;2024-03-22T09:24:01;16.50;;;9.40;;
70487;SDS011;57976;48.174;16.370;2024-03-22T09:26:06;16.00;;;9.10;;
70487;SDS011;57976;48.174;16.370;2024-03-22T09:28:10;16.70;;;9.10;;
70487;SDS011;57976;48.174;16.370;2024-03-22T09:30:15;17.10;;;8.80;;
70487;SDS011;57976;48.174;16.370;2024-03-22T09:32:19;16.70;;;9.50;;
70487;SDS011;57976;48.174;16.370;2024-03-22T09:34:24;18.10;;;9.00;;
70487;SDS011;57976;48.174;16.370;2024-03-22T09:36:29;17.10;;;9.10;;
70487;SDS011;57976;48.174;16.370;2024-03-22T09:38:33;16.30;;;9.00;;
70487;SDS011;57976;48.174;16.370;2024-03-22T09:40:40;18.80;;;9.20;;
70487;SDS011;57976;48.174;16.370;2024-03-22T09:42:45;18.00;;;9.30;;
70487;SDS011;57976;48.174;16.370;2024-03-22T09:44:52;18.60;;;9.70;;
70487;SDS011;57976;48.174;16.370;2024-03-22T09:46:57;16.10;;;9.00;;
70487;SDS011;57976;48.174;16.370;2024-03-22T09:49:03;17.20;;;9.30;;
70487;SDS011;57976;48.174;16.370;2024-03-22T09:51:10;14.70;;;8.50;;
70487;SDS011;57976;48.174;16.370;2024-03-22T09:53:17;18.20;;;9.00;;
70487;SDS011;57976;48.174;16.370;2024-03-22T09:55:23;15.50;;;8.70;;
70487;SDS011;57976;48.174;16.370;2024-03-22T09:57:28;17.10;;;8.70;;
70487;SDS011;57976;48.174;16.370;2024-03-22T09:59:34;16.30;;;8.80;;
70487;SDS011;57976;48.174;16.370;2024-03-22T10:01:39;17.20;;;9.60;;
70487;SDS011;57976;48.174;16.370;2024-03-22T10:03:47;18.80;;;8.60;;
70487;SDS011;57976;48.174;16.370;2024-03-22T10:05:53;16.20;;;8.70;;
70487;SDS011;57976;48.174;16.370;2024-03-22T10:07:57;16.10;;;8.50;;
70487;SDS011;57976;48.174;16.370;2024-03-22T10:10:03;16.70;;;8.60;;
70487;SDS011;57976;48.174;16.370;2024-03-22T10:12:08;14.90;;;8.40;;
70487;SDS011;57976;48.174;16.370;2024-03-22T10:14:12;16.20;;;8.50;;
70487;SDS011;57976;48.174;16.370;2024-03-22T10:16:33;14.80;;;8.40;;
70487;SDS011;57976;48.174;16.370;2024-03-22T10:18:38;14.30;;;8.00;;
70487;SDS011;57976;48.174;16.370;2024-03-22T10:20:43;15.40;;;8.00;;
70487;SDS011;57976;48.174;16.370;2024-03-22T10:22:49;14.60;;;7.80;;
70487;SDS011;57976;48.174;16.370;2024-03-22T10:24:57;15.90;;;8.00;;
70487;SDS011;57976;48.174;16.370;2024-03-22T10:27:02;15.00;;;7.70;;
70487;SDS011;57976;48.174;16.370;2024-03-22T10:29:06;15.00;;;7.80;;
70487;SDS011;57976;48.174;16.370;2024-03-22T10:31:11;14.00;;;8.00;;
70487;SDS011;57976;48.174;16.370;2024-03-22T10:33:16;14.90;;;8.20;;
70487;SDS011;57976;48.174;16.370;2024-03-22T10:35:23;15.10;;;7.90;;
70487;SDS011;57976;48.174;16.370;2024-03-22T10:37:28;15.00;;;7.80;;
70487;SDS011;57976;48.174;16.370;2024-03-22T10:39:35;14.70;;;7.80;;
70487;SDS011;57976;48.174;16.370;2024-03-22T10:41:41;15.80;;;7.90;;
70487;SDS011;57976;48.174;16.370;2024-03-22T10:43:46;14.50;;;8.20;;
70487;SDS011;57976;48.174;16.370;2024-03-22T10:45:50;14.30;;;7.60;;
70487;SDS011;57976;48.174;16.370;2024-03-22T10:47:59;13.50;;;7.50;;
70487;SDS011;57976;48.174;16.370;2024-03-22T10:50:09;13.70;;;7.70;;
70487;SDS011;57976;48.174;16.370;2024-03-22T10:52:17;15.00;;;7.00;;
70487;SDS011;57976;48.174;16.370;2024-03-22T10:56:42;13.40;;;6.90;;
70487;SDS011;57976;48.174;16.370;2024-03-22T10:58:48;13.60;;;7.20;;
70487;SDS011;57976;48.174;16.370;2024-03-22T11:00:53;13.40;;;7.00;;
70487;SDS011;57976;48.174;16.370;2024-03-22T11:02:58;13.50;;;7.10;;
70487;SDS011;57976;48.174;16.370;2024-03-22T11:05:04;13.30;;;7.40;;
70487;SDS011;57976;48.174;16.370;2024-03-22T11:07:09;13.80;;;7.00;;
70487;SDS011;57976;48.174;16.370;2024-03-22T11:09:24;14.60;;;7.10;;
70487;SDS011;57976;48.174;16.370;2024-03-22T11:11:30;14.20;;;7.60;;
70487;SDS011;57976;48.174;16.370;2024-03-22T11:13:36;12.80;;;6.90;;
70487;SDS011;57976;48.174;16.370;2024-03-22T11:15:43;13.80;;;7.50;;
70487;SDS011;57976;48.174;16.370;2024-03-22T11:17:49;12.20;;;6.60;;
70487;SDS011;57976;48.174;16.370;2024-03-22T11:19:54;12.30;;;6.40;;
70487;SDS011;57976;48.174;16.370;2024-03-22T11:21:59;12.70;;;6.60;;
70487;SDS011;57976;48.174;16.370;2024-03-22T11:24:07;12.00;;;6.10;;
70487;SDS011;57976;48.174;16.370;2024-03-22T11:26:13;12.90;;;7.00;;
70487;SDS011;57976;48.174;16.370;2024-03-22T11:28:17;13.60;;;6.70;;
70487;SDS011;57976;48.174;16.370;2024-03-22T11:30:22;12.20;;;6.70;;
70487;SDS011;57976;48.174;16.370;2024-03-22T11:32:28;12.40;;;6.50;;
70487;SDS011;57976;48.174;16.370;2024-03-22T11:34:32;12.60;;;6.00;;
70487;SDS011;57976;48.174;16.370;2024-03-22T11:36:37;11.30;;;6.00;;
70487;SDS011;57976;48.174;16.370;2024-03-22T11:38:41;11.90;;;7.00;;
70487;SDS011;57976;48.174;16.370;2024-03-22T11:40:46;11.70;;;6.60;;
70487;SDS011;57976;48.174;16.370;2024-03-22T11:42:51;12.80;;;6.80;;
70487;SDS011;57976;48.174;16.370;2024-03-22T11:44:57;11.70;;;6.40;;
70487;SDS011;57976;48.174;16.370;2024-03-22T11:47:03;13.70;;;6.90;;
70487;SDS011;57976;48.174;16.370;2024-03-22T11:49:08;14.30;;;7.00;;
70487;SDS011;57976;48.174;16.370;2024-03-22T11:51:13;12.40;;;6.40;;
70487;SDS011;57976;48.174;16.370;2024-03-22T11:53:17;11.80;;;5.70;;
70487;SDS011;57976;48.174;16.370;2024-03-22T11:55:22;12.40;;;6.10;;
70487;SDS011;57976;48.174;16.370;2024-03-22T11:57:29;11.10;;;5.90;;
70487;SDS011;57976;48.174;16.370;2024-03-22T11:59:33;13.00;;;7.10;;
70487;SDS011;57976;48.174;16.370;2024-03-22T12:01:41;10.70;;;5.50;;
70487;SDS011;57976;48.174;16.370;2024-03-22T12:03:46;11.00;;;5.90;;
70487;SDS011;57976;48.174;16.370;2024-03-22T12:05:52;10.60;;;5.70;;
70487;SDS011;57976;48.174;16.370;2024-03-22T12:07:58;10.60;;;5.40;;
70487;SDS011;57976;48.174;16.370;2024-03-22T12:10:02;10.40;;;5.10;;